Time;durP1;ratioP1;P1;durP2;ratioP2;P2;SDS_P1;SDS_P2;PMS_P1;PMS_P2;Temp;Humidity;BMP_temperature;BMP_pressure;BME280_temperature;BME280_humidity;BME280_pressure;Samples;Min_cycle;Max_cycle;Signal;HPM_P1;HPM_P2
2022/11/03 00:02:20;;;;;;;9.93;2.27;;;10.90;99.90;;;;;;5071792;28;20039;-84
2022/11/03 00:04:46;;;;;;;7.70;1.57;;;10.80;99.90;;;;;;5036516;28;20284;-84
2022/11/03 00:07:11;;;;;;;5.33;1.23;;;11.10;99.90;;;;;;5054980;28;20043;-85
2022/11/03 00:09:37;;;;;;;9.87;2.00;;;11.00;99.90;;;;;;5054738;28;20390;-84
2022/11/03 00:12:03;;;;;;;8.70;1.47;;;11.00;99.90;;;;;;5071752;28;20446;-85
2022/11/03 00:14:28;;;;;;;9.13;1.73;;;11.00;99.90;;;;;;5055791;28;20308;-85
2022/11/03 00:16:54;;;;;;;7.87;1.70;;;11.00;99.90;;;;;;5055457;28;20340;-84
2022/11/03 00:19:20;;;;;;;11.53;2.37;;;11.00;99.90;;;;;;5039028;28;20048;-84
2022/11/03 00:21:45;;;;;;;9.40;1.67;;;11.00;99.90;;;;;;5038502;28;20115;-85
2022/11/03 00:24:12;;;;;;;18.83;2.20;;;11.00;99.90;;;;;;5054772;28;20774;-85
2022/11/03 00:26:38;;;;;;;13.88;1.95;;;11.00;99.90;;;;;;5035920;28;20356;-84
2022/11/03 00:29:11;;;;;;;9.07;2.03;;;11.00;99.90;;;;;;5054837;28;20044;-85
2022/11/03 00:31:38;;;;;;;6.28;1.40;;;11.00;99.90;;;;;;5054698;28;20384;-85
2022/11/03 00:34:06;;;;;;;9.45;1.85;;;11.00;99.90;;;;;;5054889;28;20047;-85
2022/11/03 00:36:37;;;;;;;10.68;1.73;;;10.90;99.90;;;;;;5071888;28;20068;-85
2022/11/03 00:39:04;;;;;;;8.38;1.80;;;11.00;99.90;;;;;;5054912;28;20081;-85
2022/11/03 00:41:30;;;;;;;8.63;1.45;;;10.80;99.90;;;;;;5071856;28;20060;-84
2022/11/03 00:43:56;;;;;;;9.57;1.55;;;11.00;99.90;;;;;;5054406;28;20368;-84
2022/11/03 00:46:23;;;;;;;10.50;2.05;;;10.70;99.90;;;;;;5038965;28;20036;-85
2022/11/03 00:48:49;;;;;;;8.93;2.10;;;10.70;99.90;;;;;;5054975;28;20123;-85
2022/11/03 00:51:21;;;;;;;7.25;2.05;;;10.70;99.90;;;;;;5055259;28;20044;-85
2022/11/03 00:53:51;;;;;;;5.15;1.50;;;10.80;99.90;;;;;;5054890;28;20025;-85
2022/11/03 00:56:18;;;;;;;14.02;2.35;;;10.70;99.90;;;;;;5054680;28;20032;-84
2022/11/03 00:58:44;;;;;;;6.25;1.20;;;10.70;99.90;;;;;;5071190;28;20036;-85
2022/11/03 01:01:13;;;;;;;6.18;1.48;;;10.80;99.90;;;;;;5054840;28;20024;-84
2022/11/03 01:06:48;;;;;;;8.60;1.80;;;10.80;99.90;;;;;;5054347;28;20052;-84
2022/11/03 01:09:11;;;;;;;11.60;2.10;;;10.80;99.90;;;;;;5041310;28;20040;-84
2022/11/03 01:11:42;;;;;;;10.40;1.63;;;10.80;99.90;;;;;;5054266;28;20392;-86
2022/11/03 01:14:10;;;;;;;9.65;1.60;;;10.80;99.90;;;;;;5050090;28;20139;-85
2022/11/03 01:16:36;;;;;;;5.22;1.60;;;10.80;99.90;;;;;;5057287;28;20047;-86
2022/11/03 01:19:02;;;;;;;10.43;1.73;;;10.70;99.90;;;;;;5056299;28;20049;-85
2022/11/03 01:21:28;;;;;;;9.57;2.10;;;10.70;99.90;;;;;;5051705;28;20049;-86
2022/11/03 01:23:54;;;;;;;9.73;1.83;;;10.70;99.90;;;;;;5054286;28;20507;-85
2022/11/03 01:26:19;;;;;;;8.70;1.80;;;10.80;99.90;;;;;;5054698;28;20036;-85
2022/11/03 01:28:46;;;;;;;7.85;1.77;;;10.70;99.90;;;;;;5053709;28;20294;-85
2022/11/03 01:31:15;;;;;;;11.60;1.55;;;10.80;99.90;;;;;;5054150;28;20032;-85
2022/11/03 01:33:41;;;;;;;8.07;1.50;;;10.80;99.90;;;;;;5070459;28;20048;-85
2022/11/03 01:36:07;;;;;;;;;;;10.80;99.90;;;;;;5071445;28;20484;-85
2022/11/03 01:38:35;;;;;;;4.75;1.27;;;10.80;99.90;;;;;;5071281;28;19917;-85
2022/11/03 01:41:02;;;;;;;8.60;1.70;;;10.70;99.90;;;;;;5054010;28;20052;-85
2022/11/03 01:43:30;;;;;;;5.72;1.33;;;10.90;99.90;;;;;;5053446;28;20051;-85
2022/11/03 01:46:14;;;;;;;12.65;1.60;;;10.80;99.90;;;;;;5070754;28;20037;-85
2022/11/03 01:48:44;;;;;;;10.80;1.98;;;10.80;99.90;;;;;;5070771;28;20032;-86
2022/11/03 01:51:13;;;;;;;6.22;1.60;;;10.80;99.90;;;;;;5070676;28;20044;-86
2022/11/03 01:53:43;;;;;;;6.68;1.70;;;10.70;99.90;;;;;;5051943;28;20037;-86
2022/11/03 01:56:10;;;;;;;9.30;2.08;;;10.70;99.90;;;;;;5053899;28;20105;-85
2022/11/03 01:58:40;;;;;;;7.70;1.70;;;10.70;99.90;;;;;;5037760;28;20047;-85
2022/11/03 02:01:06;;;;;;;8.23;1.90;;;10.70;99.90;;;;;;5070291;28;20122;-85
2022/11/03 02:03:35;;;;;;;7.60;1.63;;;10.60;99.90;;;;;;5037650;28;20507;-85
2022/11/03 02:06:02;;;;;;;9.15;2.42;;;10.50;99.90;;;;;;5069462;28;20041;-86
2022/11/03 02:08:40;;;;;;;5.38;1.30;;;10.50;99.90;;;;;;5036483;28;20037;-86
2022/11/03 02:13:55;;;;;;;7.63;1.90;;;10.60;99.90;;;;;;5045920;28;20059;-86
2022/11/03 02:16:25;;;;;;;5.57;1.30;;;10.50;99.90;;;;;;5053368;28;20040;-86
2022/11/03 02:18:52;;;;;;;9.23;1.58;;;10.50;99.90;;;;;;5069172;28;20070;-85
2022/11/03 02:21:30;;;;;;;7.88;1.60;;;10.40;99.90;;;;;;5068023;28;20080;-86
2022/11/03 02:24:23;;;;;;;8.43;1.95;;;10.40;99.90;;;;;;5053643;28;20438;-86
2022/11/03 02:26:52;;;;;;;10.35;1.77;;;10.20;99.90;;;;;;5053627;28;20365;-85
2022/11/03 02:29:18;;;;;;;11.88;2.05;;;10.50;99.90;;;;;;5053278;28;20389;-85
2022/11/03 02:31:56;;;;;;;8.75;1.83;;;10.40;99.90;;;;;;5036429;28;20043;-85
2022/11/03 02:34:43;;;;;;;15.43;2.00;;;10.40;99.90;;;;;;5053306;28;20385;-85
2022/11/03 02:37:15;;;;;;;7.28;1.23;;;10.40;99.90;;;;;;5069871;28;20089;-85
2022/11/03 02:39:57;;;;;;;7.85;1.95;;;10.40;99.90;;;;;;5053574;28;20102;-85
2022/11/03 02:42:24;;;;;;;10.48;1.65;;;10.40;99.90;;;;;;5052831;28;20051;-85
2022/11/03 02:44:51;;;;;;;12.52;2.25;;;10.30;99.90;;;;;;5034288;28;20037;-85
2022/11/03 02:47:17;;;;;;;8.32;2.25;;;10.40;99.90;;;;;;5020681;28;20492;-85
2022/11/03 02:49:52;;;;;;;9.75;1.52;;;10.40;99.90;;;;;;5036803;28;20086;-85
2022/11/03 02:52:38;;;;;;;7.80;1.35;;;10.40;99.90;;;;;;5067750;28;20032;-85
2022/11/03 02:55:45;;;;;;;10.18;1.88;;;10.50;99.90;;;;;;5070609;28;20124;-85
2022/11/03 02:58:16;;;;;;;8.48;1.40;;;10.50;99.90;;;;;;5054487;28;20438;-85
2022/11/03 03:00:53;;;;;;;8.18;1.73;;;10.40;99.90;;;;;;5073116;28;20029;-85
2022/11/03 03:03:36;;;;;;;7.45;1.25;;;10.50;99.90;;;;;;5071871;28;20040;-85
2022/11/03 03:06:18;;;;;;;10.15;1.70;;;10.50;99.90;;;;;;5060021;28;20098;-85
2022/11/03 03:08:49;;;;;;;10.63;1.80;;;10.50;99.90;;;;;;5056637;28;20091;-85
2022/11/03 03:11:15;;;;;;;9.45;1.90;;;10.50;99.90;;;;;;5070696;28;20060;-85
2022/11/03 03:13:43;;;;;;;10.68;1.90;;;10.60;99.90;;;;;;5073022;28;20033;-84
2022/11/03 03:16:16;;;;;;;5.70;1.80;;;10.60;99.90;;;;;;5056392;28;20044;-85
2022/11/03 03:19:29;;;;;;;4.25;1.50;;;10.70;99.90;;;;;;5058140;28;20800;-84
2022/11/03 03:22:00;;;;;;;7.95;1.73;;;10.70;99.90;;;;;;5025369;28;20060;-84
2022/11/03 03:24:58;;;;;;;4.70;1.27;;;10.70;99.90;;;;;;5070849;28;20032;-85
2022/11/03 03:27:26;;;;;;;11.93;1.83;;;10.70;99.90;;;;;;5050635;28;20155;-84
2022/11/03 03:29:57;;;;;;;8.38;1.70;;;10.80;99.90;;;;;;5056332;28;20043;-84
2022/11/03 03:32:25;;;;;;;7.85;1.90;;;10.80;99.90;;;;;;5053859;28;20032;-85
2022/11/03 03:34:53;;;;;;;9.07;1.60;;;10.80;99.90;;;;;;5055984;28;20050;-85
2022/11/03 03:37:21;;;;;;;10.73;2.33;;;10.70;99.90;;;;;;5056022;28;20086;-84
2022/11/03 03:39:52;;;;;;;13.93;2.17;;;10.70;99.90;;;;;;5056316;28;20040;-85
2022/11/03 03:42:20;;;;;;;8.20;2.13;;;10.70;99.90;;;;;;5056491;28;20123;-85
2022/11/03 03:44:46;;;;;;;7.32;2.00;;;10.70;99.90;;;;;;5056160;28;20040;-85
2022/11/03 03:47:27;;;;;;;7.40;1.77;;;10.70;99.90;;;;;;5056039;28;20048;-84
2022/11/03 03:49:52;;;;;;;8.30;1.60;;;10.80;99.90;;;;;;5072702;28;20048;-84
2022/11/03 03:52:19;;;;;;;8.95;2.15;;;10.80;99.90;;;;;;5055820;28;20028;-84
2022/11/03 03:54:45;;;;;;;;;;;10.70;99.90;;;;;;5056536;28;20551;-84
2022/11/03 03:57:17;;;;;;;7.70;1.90;;;10.70;99.90;;;;;;5039068;28;19917;-85
2022/11/03 03:59:43;;;;;;;10.90;2.05;;;10.70;99.90;;;;;;5056038;28;20033;-85
2022/11/03 04:02:10;;;;;;;8.50;1.70;;;10.70;99.90;;;;;;5071968;28;20043;-84
2022/11/03 04:04:36;;;;;;;9.13;1.70;;;10.70;99.90;;;;;;5072031;28;20074;-85
2022/11/03 04:09:46;;;;;;;8.60;1.40;;;10.70;99.90;;;;;;5042846;28;20411;-85
2022/11/03 04:23:11;;;;;;;7.68;1.77;;;10.80;99.90;;;;;;5072662;28;20041;-86
2022/11/03 04:25:37;;;;;;;8.98;1.55;;;10.70;99.90;;;;;;5038865;28;20047;-85
2022/11/03 04:28:13;;;;;;;9.20;1.63;;;11.20;99.90;;;;;;5038863;28;20044;-85
2022/11/03 04:30:39;;;;;;;8.68;2.08;;;10.70;99.90;;;;;;5070481;28;20480;-85
2022/11/03 04:33:16;;;;;;;8.30;1.33;;;10.70;99.90;;;;;;5071217;28;20036;-85
2022/11/03 04:35:45;;;;;;;;;;;10.70;99.90;;;;;;5055192;28;20451;-86
2022/11/03 04:38:14;;;;;;;7.97;1.63;;;10.70;99.90;;;;;;5071454;28;19917;-86
2022/11/03 04:40:44;;;;;;;11.35;1.70;;;10.90;99.90;;;;;;5047657;28;20040;-85
2022/11/03 04:43:12;;;;;;;10.23;1.67;;;10.80;99.90;;;;;;5053889;28;20135;-85
2022/11/03 04:45:39;;;;;;;8.68;2.17;;;10.80;99.90;;;;;;5070370;28;20052;-86
2022/11/03 04:48:32;;;;;;;11.82;1.88;;;10.80;99.90;;;;;;5071088;28;20119;-85
2022/11/03 04:51:01;;;;;;;11.77;1.80;;;10.80;99.90;;;;;;5053313;28;20501;-86
2022/11/03 04:53:31;;;;;;;8.70;1.70;;;10.80;99.90;;;;;;5054699;28;20059;-85
2022/11/03 04:55:58;;;;;;;6.13;1.48;;;10.90;99.90;;;;;;5054420;28;20041;-85
2022/11/03 04:58:34;;;;;;;;;;;10.80;99.90;;;;;;5020913;28;20048;-85
2022/11/03 05:01:01;;;;;;;9.27;2.40;;;11.10;99.90;;;;;;5052992;28;19916;-85
2022/11/03 05:03:33;;;;;;;8.90;2.28;;;10.90;99.90;;;;;;5054478;28;20041;-85
2022/11/03 05:06:21;;;;;;;13.07;1.70;;;10.80;99.90;;;;;;5070704;28;20111;-85
2022/11/03 05:08:52;;;;;;;8.70;2.10;;;10.90;99.90;;;;;;5053646;28;20044;-84
2022/11/03 05:11:33;;;;;;;9.85;1.85;;;10.80;99.90;;;;;;5054653;28;20036;-84
2022/11/03 05:14:02;;;;;;;6.28;1.70;;;10.80;99.90;;;;;;5054733;28;20066;-86
2022/11/03 05:16:28;;;;;;;8.35;1.73;;;10.80;99.90;;;;;;5054764;28;20051;-85
2022/11/03 05:18:54;;;;;;;10.27;2.08;;;10.90;99.90;;;;;;5054427;28;20056;-84
2022/11/03 05:21:21;;;;;;;;;;;10.80;99.90;;;;;;5071246;28;20477;-85
2022/11/03 05:23:54;;;;;;;5.00;1.77;;;10.70;99.90;;;;;;5054220;28;20414;-85
2022/11/03 05:26:25;;;;;;;6.35;1.60;;;10.80;99.90;;;;;;5053786;28;20106;-83
2022/11/03 05:29:01;;;;;;;12.75;2.10;;;10.80;99.90;;;;;;5054491;28;20489;-85
2022/11/03 05:31:30;;;;;;;8.20;1.80;;;10.80;99.90;;;;;;5069049;28;20035;-85
2022/11/03 05:34:35;;;;;;;10.25;2.28;;;10.70;99.90;;;;;;5054540;28;20043;-85
2022/11/03 05:37:21;;;;;;;7.90;1.95;;;10.70;99.90;;;;;;5050818;28;20054;-85
2022/11/03 05:39:48;;;;;;;8.95;2.13;;;10.70;99.90;;;;;;5045298;28;20400;-85
2022/11/03 05:42:31;;;;;;;8.35;1.48;;;10.70;99.90;;;;;;5054065;28;20492;-85
2022/11/03 05:44:57;;;;;;;9.43;2.42;;;10.70;99.90;;;;;;5053786;28;20032;-84
2022/11/03 05:47:36;;;;;;;9.00;1.67;;;10.70;99.90;;;;;;5070106;28;20039;-84
2022/11/03 05:50:21;;;;;;;13.20;2.20;;;10.70;99.90;;;;;;5052220;28;20127;-88
2022/11/03 05:52:48;;;;;;;5.47;1.50;;;10.70;99.90;;;;;;5054429;28;20033;-85
2022/11/03 05:55:32;;;;;;;10.25;1.92;;;10.60;99.90;;;;;;5070853;28;20048;-86
2022/11/03 05:58:16;;;;;;;13.20;1.80;;;10.60;99.90;;;;;;5071067;28;20500;-86
2022/11/03 06:00:43;;;;;;;6.82;1.90;;;10.60;99.90;;;;;;5040062;28;20122;-86
2022/11/03 06:03:18;;;;;;;7.07;1.45;;;10.70;99.90;;;;;;5054181;28;20048;-86
2022/11/03 06:05:45;;;;;;;6.60;1.45;;;10.60;99.90;;;;;;5070842;28;20412;-86
2022/11/03 06:08:19;;;;;;;7.97;1.77;;;10.60;99.90;;;;;;5070758;28;20131;-86
2022/11/03 06:10:50;;;;;;;10.30;2.50;;;10.60;99.90;;;;;;5054112;28;20404;-86
2022/11/03 06:13:20;;;;;;;7.18;1.90;;;10.60;99.90;;;;;;5053633;28;20076;-86
2022/11/03 06:15:50;;;;;;;9.82;2.00;;;10.60;99.90;;;;;;5070379;28;20040;-86
2022/11/03 06:18:20;;;;;;;10.90;2.03;;;10.60;99.90;;;;;;5054333;28;20083;-86
2022/11/03 06:20:54;;;;;;;9.10;1.60;;;10.60;99.90;;;;;;5053507;28;20048;-85
2022/11/03 06:23:21;;;;;;;6.07;1.40;;;10.70;99.90;;;;;;5070698;28;20048;-86
2022/11/03 06:25:49;;;;;;;5.90;1.73;;;10.70;99.90;;;;;;5017415;28;20049;-85
2022/11/03 06:28:21;;;;;;;6.07;1.75;;;10.60;99.90;;;;;;5052053;28;20511;-86
2022/11/03 06:30:48;;;;;;;8.55;1.58;;;10.50;99.90;;;;;;5073947;28;20094;-86
2022/11/03 06:33:25;;;;;;;11.05;1.55;;;10.60;99.90;;;;;;5057825;28;20047;-86
2022/11/03 06:35:58;;;;;;;5.95;1.83;;;10.60;99.90;;;;;;5074768;28;20049;-86
2022/11/03 06:38:28;;;;;;;5.95;1.55;;;10.70;99.90;;;;;;5074830;28;20500;-86
2022/11/03 06:40:55;;;;;;;9.93;1.85;;;10.70;99.90;;;;;;5072317;28;20086;-86
2022/11/03 06:43:24;;;;;;;8.02;1.77;;;10.60;99.90;;;;;;5057496;28;20040;-86
2022/11/03 06:45:56;;;;;;;7.35;1.95;;;10.60;99.90;;;;;;5057642;28;20123;-86
2022/11/03 06:48:33;;;;;;;9.73;1.73;;;10.70;99.90;;;;;;5074490;28;20049;-86
2022/11/03 06:51:00;;;;;;;9.80;1.95;;;10.60;99.90;;;;;;5070725;28;20036;-86
2022/11/03 06:53:30;;;;;;;7.43;1.65;;;10.70;99.90;;;;;;5057814;28;20072;-85
2022/11/03 06:55:56;;;;;;;7.47;1.77;;;10.70;99.90;;;;;;5074329;28;20408;-86
2022/11/03 06:58:35;;;;;;;8.23;1.80;;;10.80;99.90;;;;;;5057447;28;20032;-86
2022/11/03 07:01:08;;;;;;;9.73;1.73;;;10.80;99.90;;;;;;5057496;28;20049;-86
2022/11/03 07:03:36;;;;;;;9.15;1.73;;;10.70;99.90;;;;;;5057413;28;20044;-86
2022/11/03 07:06:25;;;;;;;10.98;2.00;;;10.70;99.90;;;;;;5057054;28;20041;-85
2022/11/03 07:09:03;;;;;;;5.88;1.50;;;10.80;99.90;;;;;;5069949;28;20115;-86
2022/11/03 07:11:42;;;;;;;11.93;1.83;;;10.90;99.90;;;;;;5073651;28;20041;-85
2022/11/03 07:14:20;;;;;;;8.15;2.20;;;10.90;99.90;;;;;;5056880;28;20040;-86
2022/11/03 07:16:59;;;;;;;10.57;1.85;;;10.80;99.90;;;;;;5056933;28;20043;-86
2022/11/03 07:19:41;;;;;;;8.65;1.85;;;10.50;99.90;;;;;;5073692;28;20062;-86
2022/11/03 07:22:25;;;;;;;6.63;1.83;;;11.00;99.90;;;;;;5038166;28;20044;-85
2022/11/03 07:25:02;;;;;;;7.47;1.77;;;11.00;99.90;;;;;;5056919;28;20499;-85
2022/11/03 07:27:39;;;;;;;7.18;1.45;;;11.00;99.90;;;;;;5056757;28;20116;-86
2022/11/03 07:30:22;;;;;;;13.27;1.70;;;11.20;99.90;;;;;;5056647;28;20043;-86
2022/11/03 07:32:56;;;;;;;8.65;1.85;;;11.30;99.90;;;;;;5073302;28;20037;-86
2022/11/03 07:35:30;;;;;;;5.38;1.90;;;11.30;99.90;;;;;;5054887;28;20040;-85
2022/11/03 07:37:57;;;;;;;9.98;2.00;;;11.30;99.90;;;;;;5073510;28;20115;-86
2022/11/03 07:40:26;;;;;;;5.13;1.77;;;11.30;99.90;;;;;;5056608;28;20537;-86
2022/11/03 07:42:57;;;;;;;10.00;1.95;;;11.30;99.90;;;;;;5073559;28;20496;-86
2022/11/03 07:45:39;;;;;;;7.13;1.90;;;11.40;99.90;;;;;;5073388;28;20043;-86
2022/11/03 07:48:44;;;;;;;9.95;2.22;;;11.50;99.90;;;;;;5073289;28;20042;-85
2022/11/03 07:51:26;;;;;;;10.80;2.65;;;11.50;99.90;;;;;;5073113;28;20052;-85
2022/11/03 07:54:19;;;;;;;6.72;1.90;;;11.50;99.90;;;;;;5073023;28;20043;-85
2022/11/03 07:56:49;;;;;;;12.98;2.60;;;11.60;99.90;;;;;;5056952;28;20514;-86
2022/11/03 07:59:22;;;;;;;11.68;2.10;;;11.70;99.90;;;;;;5072825;28;20072;-85
2022/11/03 08:01:53;;;;;;;8.88;2.30;;;11.80;99.90;;;;;;5062752;28;20029;-86
2022/11/03 08:04:28;;;;;;;6.82;1.70;;;11.80;99.90;;;;;;5072972;28;20120;-86
2022/11/03 08:06:54;;;;;;;8.90;1.85;;;11.80;99.90;;;;;;5073340;28;20040;-86
2022/11/03 08:09:20;;;;;;;8.05;2.05;;;11.80;99.90;;;;;;5072692;28;20045;-85
2022/11/03 08:11:46;;;;;;;8.20;1.83;;;11.90;99.90;;;;;;5073512;28;20401;-86
2022/11/03 08:14:12;;;;;;;7.63;1.70;;;12.00;99.90;;;;;;5072920;28;20500;-85
2022/11/03 08:16:38;;;;;;;7.35;1.67;;;12.10;99.90;;;;;;5040043;28;20437;-86
2022/11/03 08:19:05;;;;;;;7.13;1.88;;;12.20;99.90;;;;;;5056099;28;20076;-86
2022/11/03 08:21:31;;;;;;;7.43;2.08;;;12.30;99.90;;;;;;5072899;28;20098;-86
2022/11/03 08:23:56;;;;;;;4.55;1.60;;;12.40;99.90;;;;;;5055995;28;20044;-86
2022/11/03 08:26:22;;;;;;;9.13;2.07;;;12.60;99.90;;;;;;5056253;28;20032;-86
2022/11/03 08:28:48;;;;;;;10.43;2.08;;;12.70;99.90;;;;;;5055750;28;20294;-86
2022/11/03 08:31:14;;;;;;;7.30;1.85;;;12.80;99.90;;;;;;5037013;28;20048;-86
2022/11/03 08:33:40;;;;;;;10.27;3.08;;;12.90;99.90;;;;;;5069578;28;20082;-86
2022/11/03 08:36:07;;;;;;;8.82;2.03;;;13.00;99.90;;;;;;5039652;28;20499;-86
2022/11/03 08:38:33;;;;;;;4.90;1.67;;;13.30;99.90;;;;;;5040226;28;20523;-86
2022/11/03 08:40:58;;;;;;;9.37;2.23;;;13.60;99.90;;;;;;5072855;28;20048;-86
2022/11/03 08:43:24;;;;;;;6.80;1.83;;;13.80;99.90;;;;;;5056349;28;20362;-86
2022/11/03 08:45:53;;;;;;;8.60;2.15;;;14.00;99.90;;;;;;5056367;28;20067;-86
2022/11/03 08:48:26;;;;;;;12.20;2.35;;;14.00;99.90;;;;;;5056491;28;20566;-86
2022/11/03 08:50:53;;;;;;;11.07;1.80;;;13.90;99.90;;;;;;5039436;28;20033;-86
2022/11/03 08:53:20;;;;;;;7.43;2.08;;;13.80;99.90;;;;;;5055378;28;20489;-86
2022/11/03 08:55:45;;;;;;;7.05;1.98;;;13.80;99.90;;;;;;5072755;28;20136;-86
2022/11/03 08:58:11;;;;;;;4.22;1.75;;;13.80;99.90;;;;;;5055422;28;20127;-86
2022/11/03 09:00:37;;;;;;;4.80;1.80;;;13.80;99.90;;;;;;5072271;28;20040;-86
2022/11/03 09:03:03;;;;;;;9.55;2.38;;;13.70;99.90;;;;;;5054771;28;20044;-87
2022/11/03 09:05:29;;;;;;;6.70;1.83;;;13.60;99.90;;;;;;5072200;28;20055;-86
2022/11/03 09:07:55;;;;;;;11.63;2.40;;;13.60;99.90;;;;;;5072139;28;20089;-87
2022/11/03 09:10:21;;;;;;;8.65;2.45;;;13.50;99.90;;;;;;5055286;28;20040;-86
2022/11/03 09:12:46;;;;;;;8.15;2.17;;;13.40;99.90;;;;;;5071981;28;20105;-86
2022/11/03 09:15:12;;;;;;;6.70;1.97;;;13.40;99.90;;;;;;5022158;28;20037;-86
2022/11/03 09:17:38;;;;;;;9.00;2.22;;;13.50;99.90;;;;;;5038493;28;20286;-86
2022/11/03 09:20:05;;;;;;;10.02;1.67;;;13.40;99.90;;;;;;5038477;28;20045;-86
2022/11/03 09:22:31;;;;;;;9.50;2.40;;;13.50;99.90;;;;;;5053426;28;20131;-77
2022/11/03 09:24:56;;;;;;;7.78;1.85;;;13.60;99.90;;;;;;5070022;28;20170;-75
2022/11/03 09:27:22;;;;;;;7.70;1.80;;;13.60;99.90;;;;;;5036734;28;20043;-75
2022/11/03 09:29:48;;;;;;;7.50;2.13;;;13.70;99.90;;;;;;5053438;28;20472;-76
2022/11/03 09:32:14;;;;;;;5.15;1.65;;;13.70;99.90;;;;;;5069494;28;20037;-76
2022/11/03 09:34:40;;;;;;;;;;;13.70;99.90;;;;;;5066866;28;20052;-77
2022/11/03 09:37:06;;;;;;;9.75;2.00;;;13.70;99.90;;;;;;5068818;28;19916;-77
2022/11/03 09:39:33;;;;;;;8.73;2.35;;;13.80;99.90;;;;;;5068504;28;20116;-77
2022/11/03 09:41:59;;;;;;;8.20;1.90;;;13.80;99.90;;;;;;5069102;28;20500;-77
2022/11/03 09:44:25;;;;;;;;;;;13.90;99.90;;;;;;5052560;28;20040;-76
2022/11/03 09:46:51;;;;;;;8.32;2.45;;;14.00;99.90;;;;;;5068881;28;20356;-77
2022/11/03 09:49:19;;;;;;;8.57;1.80;;;14.10;99.90;;;;;;5053025;28;20376;-77
2022/11/03 09:51:45;;;;;;;10.35;2.10;;;14.10;99.90;;;;;;5052538;28;20051;-77
2022/11/03 09:54:15;;;;;;;6.30;1.88;;;14.20;99.90;;;;;;5069125;28;20048;-77
2022/11/03 09:56:42;;;;;;;10.48;2.38;;;14.10;99.90;;;;;;5069516;28;20476;-77
2022/11/03 09:59:22;;;;;;;9.27;2.42;;;14.20;99.90;;;;;;5069744;28;20515;-76
2022/11/03 10:01:52;;;;;;;8.45;1.88;;;14.30;99.90;;;;;;5067644;28;20119;-77
2022/11/03 10:04:36;;;;;;;6.85;1.92;;;14.50;99.90;;;;;;5038059;28;20094;-77
2022/11/03 10:07:06;;;;;;;7.18;2.08;;;14.50;99.90;;;;;;5071581;28;20060;-77
2022/11/03 10:09:33;;;;;;;9.32;2.20;;;14.70;99.90;;;;;;5056838;28;20032;-77
2022/11/03 10:11:59;;;;;;;6.03;1.80;;;14.80;99.90;;;;;;5073278;28;20048;-77
2022/11/03 10:14:24;;;;;;;9.00;2.20;;;14.80;99.90;;;;;;5056516;28;20043;-77
2022/11/03 10:16:56;;;;;;;9.02;2.08;;;14.90;99.90;;;;;;5040176;28;20047;-77
2022/11/03 10:19:23;;;;;;;10.25;2.15;;;15.00;99.90;;;;;;5073618;28;20036;-77
2022/11/03 10:21:50;;;;;;;7.47;2.15;;;15.00;99.90;;;;;;5073561;28;20084;-77
2022/11/03 10:24:17;;;;;;;9.15;2.13;;;15.00;99.90;;;;;;5056697;28;20036;-77
2022/11/03 10:26:48;;;;;;;7.63;2.05;;;14.90;99.90;;;;;;5056416;28;20041;-77
2022/11/03 10:29:19;;;;;;;9.98;2.00;;;14.90;99.90;;;;;;5056864;28;20087;-77
2022/11/03 10:31:50;;;;;;;8.23;1.92;;;14.90;99.90;;;;;;5072944;28;20039;-77
2022/11/03 10:34:31;;;;;;;5.57;1.77;;;14.80;99.90;;;;;;5056637;28;20504;-76
2022/11/03 10:37:20;;;;;;;13.82;2.28;;;14.80;99.90;;;;;;5073025;28;20075;-76
2022/11/03 10:39:48;;;;;;;10.10;2.33;;;14.80;99.90;;;;;;5071057;28;20048;-76
2022/11/03 10:42:25;;;;;;;9.80;2.17;;;14.90;99.90;;;;;;5056021;28;20074;-76
2022/11/03 10:45:18;;;;;;;8.52;1.80;;;15.00;99.90;;;;;;5056156;28;20086;-76
2022/11/03 10:47:58;;;;;;;8.65;1.83;;;15.10;99.90;;;;;;5054265;28;20512;-76
2022/11/03 10:50:25;;;;;;;4.13;1.42;;;15.50;99.90;;;;;;5071292;28;20040;-76
2022/11/03 10:52:51;;;;;;;8.75;1.65;;;16.00;99.90;;;;;;5056394;28;20033;-77
2022/11/03 10:55:18;;;;;;;5.03;1.38;;;16.20;99.90;;;;;;5056142;28;20040;-76
2022/11/03 10:57:45;;;;;;;10.18;2.55;;;16.40;99.90;;;;;;5039004;28;20089;-76
2022/11/03 11:00:15;;;;;;;8.18;1.75;;;16.30;99.90;;;;;;5072565;28;20040;-76
2022/11/03 11:02:43;;;;;;;10.40;1.83;;;16.20;99.90;;;;;;5060324;28;20040;-76
2022/11/03 11:05:20;;;;;;;8.10;1.75;;;16.20;99.90;;;;;;5072509;28;20044;-76
2022/11/03 11:07:46;;;;;;;6.82;2.03;;;16.20;99.90;;;;;;5055614;28;20072;-76
2022/11/03 11:10:28;;;;;;;9.60;1.60;;;16.10;99.90;;;;;;5055559;28;20045;-76
2022/11/03 11:13:22;;;;;;;7.68;2.05;;;16.20;99.90;;;;;;5055406;28;20516;-76
2022/11/03 11:15:55;;;;;;;6.53;1.67;;;16.90;99.90;;;;;;5071998;28;20162;-75
2022/11/03 11:18:27;;;;;;;6.93;1.98;;;17.60;99.90;;;;;;5070699;28;20071;-76
2022/11/03 11:21:00;;;;;;;6.03;1.60;;;18.00;99.90;;;;;;5072218;28;20526;-75
2022/11/03 11:23:26;;;;;;;8.98;2.05;;;18.00;99.90;;;;;;5072682;28;20041;-74
2022/11/03 11:26:09;;;;;;;6.40;1.63;;;17.90;99.90;;;;;;5055286;28;20040;-75
2022/11/03 11:28:37;;;;;;;7.38;1.95;;;17.70;99.90;;;;;;5053122;28;20040;-75
2022/11/03 11:31:21;;;;;;;8.82;1.77;;;17.50;99.90;;;;;;5036859;28;20041;-76
2022/11/03 11:33:47;;;;;;;7.13;1.50;;;17.50;99.90;;;;;;5054371;28;20484;-75
2022/11/03 11:36:24;;;;;;;5.35;1.38;;;17.60;99.90;;;;;;5071142;28;20043;-75
2022/11/03 11:38:51;;;;;;;9.65;1.80;;;17.60;99.90;;;;;;5054350;28;20036;-75
2022/11/03 11:41:19;;;;;;;5.55;1.30;;;17.50;99.90;;;;;;5054213;28;20102;-75
2022/11/03 11:43:45;;;;;;;6.10;1.67;;;17.30;99.90;;;;;;5038151;28;20032;-75
2022/11/03 11:46:34;;;;;;;7.35;1.45;;;17.20;99.90;;;;;;5054146;28;20127;-76
2022/11/03 11:49:03;;;;;;;5.18;1.50;;;17.10;99.90;;;;;;5070794;28;20094;-76
2022/11/03 11:51:36;;;;;;;6.85;1.55;;;17.00;99.90;;;;;;5071627;28;20366;-76
2022/11/03 11:54:17;;;;;;;7.53;1.50;;;16.90;99.90;;;;;;5071448;28;20079;-76
2022/11/03 11:56:45;;;;;;;5.88;1.58;;;16.80;99.90;;;;;;5071313;28;20036;-76
2022/11/03 11:59:21;;;;;;;7.47;1.63;;;16.70;99.90;;;;;;5071214;28;20036;-76
2022/11/03 12:01:53;;;;;;;4.38;1.40;;;16.60;99.90;;;;;;5071268;28;20036;-75
2022/11/03 12:04:32;;;;;;;5.38;1.73;;;16.50;99.90;;;;;;5038663;28;20522;-76
2022/11/03 12:06:58;;;;;;;6.38;1.27;;;16.50;99.90;;;;;;5053855;28;20408;-76
2022/11/03 12:09:26;;;;;;;6.45;1.38;;;16.50;99.90;;;;;;5038480;28;20550;-76
2022/11/03 12:11:57;;;;;;;5.97;1.33;;;16.50;99.90;;;;;;5037841;28;20036;-76
2022/11/03 12:14:32;;;;;;;4.97;1.38;;;16.50;99.90;;;;;;5054334;28;20111;-76
2022/11/03 12:17:16;;;;;;;5.90;1.25;;;16.40;99.90;;;;;;5071494;28;20124;-76
2022/11/03 12:19:43;;;;;;;5.90;1.10;;;16.30;99.90;;;;;;5070452;28;20032;-76
2022/11/03 12:22:10;;;;;;;6.30;1.45;;;16.40;99.90;;;;;;5070861;28;20040;-76
2022/11/03 12:24:48;;;;;;;6.10;1.33;;;16.30;99.90;;;;;;5071040;28;20076;-76
2022/11/03 12:27:39;;;;;;;3.05;1.13;;;16.20;99.90;;;;;;5068826;28;20045;-76
2022/11/03 12:30:14;;;;;;;6.75;1.38;;;16.20;99.90;;;;;;5052004;28;20036;-76
2022/11/03 12:32:40;;;;;;;5.90;1.55;;;16.20;99.90;;;;;;5054042;28;20036;-76
2022/11/03 12:35:07;;;;;;;4.75;1.55;;;16.20;99.90;;;;;;5054332;28;20090;-76
2022/11/03 12:37:33;;;;;;;7.05;1.10;;;16.10;99.90;;;;;;5070571;28;20120;-75
2022/11/03 12:39:59;;;;;;;4.93;1.02;;;16.10;99.90;;;;;;5037524;28;20120;-76
2022/11/03 12:42:25;;;;;;;5.90;1.40;;;16.00;99.90;;;;;;5070949;28;20052;-76
2022/11/03 12:44:51;;;;;;;6.07;1.30;;;16.00;99.90;;;;;;5054123;28;20123;-75
2022/11/03 12:47:17;;;;;;;6.22;1.40;;;16.00;99.90;;;;;;5070407;28;20040;-76
2022/11/03 12:49:42;;;;;;;4.57;1.30;;;15.90;99.90;;;;;;5037438;28;20090;-76
2022/11/03 12:52:09;;;;;;;9.55;1.42;;;16.00;99.90;;;;;;5070414;28;20067;-75
2022/11/03 12:54:35;;;;;;;7.35;1.77;;;16.00;99.90;;;;;;5053443;28;20542;-76
2022/11/03 12:57:00;;;;;;;4.40;1.13;;;16.00;99.90;;;;;;5070640;28;20048;-75
2022/11/03 12:59:26;;;;;;;4.97;1.33;;;16.00;99.90;;;;;;5054208;28;20028;-76
2022/11/03 13:01:52;;;;;;;6.50;1.40;;;16.00;99.90;;;;;;5053444;28;20098;-76
2022/11/03 13:04:17;;;;;;;4.10;1.13;;;16.00;99.90;;;;;;5053476;28;20044;-76
2022/11/03 13:06:43;;;;;;;5.50;1.52;;;16.10;99.90;;;;;;5070067;28;20036;-76
2022/11/03 13:09:09;;;;;;;5.65;1.40;;;16.20;99.90;;;;;;5053476;28;20063;-75
2022/11/03 13:14:20;;;;;;;4.88;1.20;;;16.40;99.90;;;;;;5068785;28;20492;-75
2022/11/03 13:16:46;;;;;;;8.48;1.65;;;16.40;99.90;;;;;;5037177;28;20048;-75
2022/11/03 13:19:12;;;;;;;3.20;1.30;;;16.40;99.90;;;;;;5053767;28;20118;-76
2022/11/03 13:21:38;;;;;;;9.60;1.60;;;16.50;99.90;;;;;;5052865;28;20076;-76
2022/11/03 13:24:04;;;;;;;6.53;1.40;;;16.50;99.90;;;;;;5069872;28;20088;-76
2022/11/03 13:26:30;;;;;;;4.00;1.08;;;16.50;99.90;;;;;;5053207;28;20048;-75
2022/11/03 13:28:55;;;;;;;3.97;1.30;;;16.50;99.90;;;;;;5069507;28;21276;-76